WEATHER DATA

YESTERDAY
Time Temp. Dewp. Hum. Wind dir Wind speed Wind gust Bar.
00:03 -2 -5.6 74 62 0.6 1.1 1033.8
00:13 -2 -5.6 74 57 0.6 1.4 1034
00:23 -1.9 -5.6 73 65 0.6 1.1 1034
00:33 -2 -5.6 74 45 0.6 1.4 1034.3
00:43 -2.1 -5.7 74 57 0.8 1.4 1034.5
00:53 -2.1 -5.7 74 45 0.6 1.4 1034.5
01:03 -2.2 -5.9 73 40 0.6 1.7 1034.6
01:14 -2.2 -5.9 73 53 0.8 1.4 1034.8
01:23 -2 -5.9 72 53 0.8 1.4 1034.6
01:33 -2.1 -5.8 73 65 0.6 1.4 1034.7
01:44 -2.1 -6 72 50 1.1 1.7 1034.6
01:54 -2.1 -6 72 57 1.1 1.7 1034.7
02:08 -1.7 -6.4 67 57 0.6 1.4 1034.6
02:19 -1.8 -5.8 71 41 0.6 1.1 1034.7
02:29 -2.2 -5.9 73 36 0.6 1.1 1034.7
02:39 -2.1 -6 72 57 0.8 1.7 1034.7
02:49 -2.2 -5.9 73 45 0.6 1.7 1034.8
02:59 -2.2 -5.9 73 33 0.6 1.1 1034.9
03:09 -2.2 -5.9 73 52 0.8 1.7 1034.9
03:19 -2.1 -5.8 73 55 0.8 1.7 1034.9
03:29 -2.1 -5.8 73 49 0.6 1.4 1034.9
03:40 -2.1 -5.7 74 62 0.8 1.7 1035.1
03:49 -2.1 -5.7 74 51 0.8 1.4 1035.3
03:59 -2.2 -5.7 74 45 0.6 1.1 1035.4
04:10 -2.3 -5.8 74 54 0.6 1.4 1035.5
04:20 -2.2 -5.9 73 55 0.8 1.7 1035.5
04:30 -2.2 -5.9 73 52 0.6 1.4 1035.6
04:40 -2.2 -5.9 73 47 0.6 1.4 1035.8
04:50 -2.2 -5.9 73 51 0.8 1.9 1036
05:00 -2.2 -5.9 73 55 0.8 1.4 1036.1
05:10 -2.3 -5.8 74 61 0.8 1.4 1036.2
05:21 -2.3 -6 73 53 0.8 1.7 1036.2
05:30 -2.5 -6 74 49 0.8 1.7 1036.4
05:40 -2.3 -6.2 72 57 0.8 1.4 1036.4
05:50 -2.2 -6.2 71 24 0.8 1.9 1036.3
06:01 -2.1 -6.1 71 40 0.8 1.7 1036.3
06:11 -2.2 -6.2 71 60 0.8 1.4 1036.5
06:20 -2.2 -6.1 72 51 0.6 1.7 1036.5
06:31 -2.3 -6.3 71 56 0.8 1.4 1036.7
06:41 -2.3 -6.3 71 57 1.1 1.7 1036.7
06:51 -2.4 -6.1 73 52 0.8 1.7 1036.8
07:01 -2.5 -6.2 73 56 0.8 1.4 1037.1
07:12 -2.5 -6.2 73 47 0.6 1.4 1037
07:21 -2.6 -6.1 74 47 0.6 1.1 1037.1
07:31 -2.7 -6.1 75 37 0.6 1.4 1037.3
07:42 -2.6 -6.1 74 33 0.6 1.4 1037.5
07:52 -2.5 -6.2 73 47 0.8 2.2 1037.6
08:02 -2.5 -6 74 64 0.8 1.4 1037.6
08:11 -2.4 -5.9 74 50 0.6 1.1 1037.5
08:22 -2.5 -6 74 53 0.6 1.4 1037.6
08:32 -2.4 -5.9 74 59 0.6 1.4 1037.5
08:42 -2.2 -5.9 73 20 0.6 1.9 1037.7
08:52 -2.2 -5.7 74 60 0.6 1.1 1037.8
09:02 -2 -5.7 73 58 0.6 1.1 1038.1
09:12 -1.9 -5.3 75 45 0.8 1.4 1038.1
09:22 -1.6 -5.2 74 58 0.8 1.7 1038.1
09:33 -1.4 -4.8 75 41 0.3 1.1 1038
09:43 -1.4 -4.8 75 36 0.6 1.1 1038.1
09:53 -1.3 -4.7 75 47 0.6 1.1 1037.8
10:03 -1.2 -4.8 74 45 0.6 1.1 1038.1
10:13 -0.8 -4.5 73 47 0.6 1.1 1038.1
10:23 -0.6 -4.2 74 270 0.3 1.1 1038.1
10:33 -0.3 -4.1 73 349 0.3 1.4 1038.2
10:44 -0.2 -4.3 71 202 0.8 1.7 1038.2
10:53 0 -4.1 71 59 0.3 0.8 1038.3
11:03 0.4 -4.1 69 173 0.8 1.9 1038.4
11:13 0.8 -3.9 68 201 1.1 2.2 1038.5
11:24 1.1 -4 66 207 0.8 1.4 1038.5
11:34 1.4 -3.9 65 192 1.1 3.1 1038.6
11:43 1.8 -3.8 64 178 0.6 1.4 1038.7
11:59 2.2 -3.4 64 197 0.6 1.1 1038.6
12:09 2 -4 62 240 0.6 1.9 1038.6
12:19 2 -3.6 64 135 0.3 0.6 1038.7
12:29 2 -4.4 60 137 0.6 1.7 1038.6
12:39 2.3 -3.6 63 270 0.3 0.3 1038.7
12:49 2.5 -3.2 64 0.0 0.6 1038.8
12:59 2.5 -3.8 61 149 0.3 1.1 1038.9
13:10 2.6 -4.1 59 0.0 0.6 1038.7
13:20 2.6 -4.3 58 338 0.3 1.1 1038.5
13:29 2.7 -3.4 62 194 0.3 0.8 1038.7
13:40 2.7 -3.8 60 212 0.3 1.1 1038.6
13:50 2.6 -3.9 60 203 0.6 1.7 1038.8
14:00 2.5 -3.8 61 221 0.3 0.8 1038.8
14:10 2.4 -3.7 62 194 0.8 1.7 1038.8
14:20 2.4 -3.1 65 0.0 0.6 1038.8
14:30 2.4 -3.3 64 0.0 0.3 1039
14:40 2.4 -3.7 62 0.0 0.6 1039
14:50 2.3 -3.7 62 177 0.6 1.1 1038.8
15:01 2.3 -3.4 64 0.0 0.3 1038.9
15:10 2.2 -3.1 66 0.0 0.3 1039
15:20 2.1 -3.4 65 0.0 0.6 1039
15:31 1.9 -3.3 66 0.0 0.6 1039.1
15:41 1.8 -3.2 67 45 0.3 0.6 1039.1
15:51 1.6 -3.6 66 0.0 0.6 1039.1
16:01 1.5 -3.9 65 90 0.3 0.8 1039.1
16:11 1.4 -3.2 69 90 0.3 0.8 1039.2
16:21 1.3 -3.8 66 64 0.6 1.1 1039.1
16:31 1.3 -3.8 66 57 0.6 1.1 1039.1
16:42 1.4 -3.9 65 61 0.6 1.4 1039.1
17:01 1.2 -3.2 70 90 0.3 0.8 1039
17:11 1.1 -3.8 67 90 0.3 1.1 1039.2
17:22 1 -3.4 70 270 0.3 0.6 1039.3
17:32 0.8 -3.4 71 14 0.3 0.8 1039.3
17:42 0.7 -3.2 73 45 0.3 0.8 1039.3
17:52 0.5 -3.3 73 53 0.3 0.8 1039.3
18:02 0.4 -3.3 74 53 0.3 0.6 1039.4
18:12 0.3 -3.2 75 53 0.6 0.8 1039.4
18:22 0.2 -3.1 76 52 0.3 0.8 1039.3
18:33 0.2 -3.1 76 45 0.3 0.8 1039.3
18:42 0.2 -3.1 76 37 0.3 0.8 1039.4
18:52 0.1 -3 77 45 0.3 0.8 1039.2
19:03 0.1 -3 77 45 0.6 1.1 1039.3
19:13 0.1 -3 77 36 0.3 0.6 1039.2
19:23 0 -3.3 76 48 0.3 0.8 1039.3
19:32 0 -3.1 77 57 0.3 0.8 1039.2
19:43 0 -3 78 45 0.3 0.6 1039.4
19:53 0 -2.8 79 53 0.3 0.8 1039.4
20:03 0 -2.8 79 53 0.3 0.6 1039.3
20:13 0 -2.8 79 56 0.3 0.6 1039.4
20:24 0 -2.8 79 54 0.3 0.8 1039.4
20:33 0 -3 78 52 0.3 0.6 1039.5
20:43 -0.1 -2.9 79 52 0.3 0.8 1039.5
20:54 -0.1 -2.8 80 60 0.3 0.8 1039.5
21:04 -0.2 -3 79 50 0.6 0.8 1039.6
21:18 -0.2 -3 79 49 0.3 0.8 1039.3
21:34 -0.3 -3 80 45 0.3 0.6 1039.5
21:44 -0.3 -3 80 53 0.3 0.8 1039.5
21:54 -0.2 -2.9 80 50 0.6 1.1 1039.7
22:05 -0.2 -2.9 80 59 0.3 0.8 1039.7
22:14 -0.2 -3 79 53 0.3 0.8 1039.8
22:24 -0.2 -2.9 80 45 0.3 0.6 1039.9
22:34 -0.2 -2.9 80 51 0.3 0.8 1039.9
22:45 -0.2 -2.9 80 90 0.3 0.8 1039.8
22:55 -0.2 -3 79 47 0.6 0.8 1040
23:04 -0.3 -3 80 41 0.3 0.8 1040
23:15 -0.3 -3 80 56 0.6 0.8 1040
23:25 -0.3 -3 80 48 0.3 0.8 1040
23:35 -0.2 -2.9 80 23 0.3 0.8 1039.9
23:45 -0.2 -2.7 81 324 0.3 0.6 1040
23:55 -0.2 -2.7 81 40 0.3 0.6 1039.8

DAY STATISTICS

2018-02-24
TEMPERATURE
AVERAGE
-0.4
HIGH
2.7
13:29
LOW
-2.7
07:31
PRESSURE
AVERAGE
1037.8
HIGH
1040.0
22:55
LOW
1033.8
00:03
DEWPOINT
AVERAGE
-4.4
HIGH
-2.7
23:45
LOW
-6.4
02:08
HUMIDITY
AVERAGE
72
HIGH
81
23:45
LOW
58
13:20
WIND SPEED
AVERAGE
0.5
HIGH
1.1
01:44
WIND GUST
AVERAGE
1.1
HIGH
3.1
11:34
WIND DIRECTION
PREVAILING
NE
71.4%
N
2.9
NE
71.4
E
3.6
SE
2.1
S
7.1
SW
2.9
W
2.1
NW
0.7
TEMPERATURE (°C)
LOW
-2.7
HIGH
2.7
AVERAGE
-0.4
PRESSURE (hpa)
LOW
1033.8
HIGH
1040.0
AVERAGE
1037.8
DEVICE